createdAt,value
2017-05-08T00:00:21.351Z,992.36
2017-05-08T00:01:31.708Z,992.39
2017-05-08T00:02:42.066Z,992.37
2017-05-08T00:03:52.433Z,992.36
2017-05-08T00:05:02.785Z,992.37
2017-05-08T00:06:12.512Z,992.34
2017-05-08T00:07:22.569Z,992.33
2017-05-08T00:08:32.594Z,992.33
2017-05-08T00:09:42.954Z,992.37
2017-05-08T00:10:53.289Z,992.34
2017-05-08T00:12:03.326Z,992.35
2017-05-08T00:13:13.684Z,992.32
2017-05-08T00:14:24.071Z,992.33
2017-05-08T00:15:34.454Z,992.32
2017-05-08T00:16:44.804Z,992.32
2017-05-08T00:17:55.147Z,992.34
2017-05-08T00:19:05.496Z,992.33
2017-05-08T00:20:15.840Z,992.32
2017-05-08T00:21:25.878Z,992.36
2017-05-08T00:22:36.229Z,992.29
2017-05-08T00:23:46.595Z,992.31
2017-05-08T00:24:56.955Z,992.31
2017-05-08T00:26:07.008Z,992.32
2017-05-08T00:27:17.357Z,992.3
2017-05-08T00:28:27.465Z,992.28
2017-05-08T00:29:37.828Z,992.3
2017-05-08T00:30:47.868Z,992.28
2017-05-08T00:31:58.212Z,992.28
2017-05-08T00:33:08.247Z,992.26
2017-05-08T00:34:18.617Z,992.26
2017-05-08T00:35:28.964Z,992.25
2017-05-08T00:36:39.309Z,992.25
2017-05-08T00:37:49.654Z,992.21
2017-05-08T00:38:59.993Z,992.21
2017-05-08T00:40:10.038Z,992.16
2017-05-08T00:41:20.387Z,992.19
2017-05-08T00:42:30.441Z,992.16
2017-05-08T00:43:40.810Z,992.17
2017-05-08T00:44:51.147Z,992.09
2017-05-08T00:46:01.491Z,992.13
2017-05-08T00:47:11.841Z,992.13
2017-05-08T00:48:21.876Z,992.12
2017-05-08T00:49:32.233Z,992.08
2017-05-08T00:50:42.586Z,992.08
2017-05-08T00:51:52.942Z,992.1
2017-05-08T00:53:03.000Z,992.12
2017-05-08T00:54:13.382Z,992.15
2017-05-08T00:55:23.422Z,992.12
2017-05-08T00:56:33.774Z,992.15
2017-05-08T00:57:43.905Z,992.1
2017-05-08T00:58:54.254Z,992.09
2017-05-08T01:00:04.599Z,992.07
2017-05-08T01:01:14.947Z,992.09
2017-05-08T01:02:25.321Z,992.11
2017-05-08T01:03:35.360Z,992.03
2017-05-08T01:04:45.702Z,992.04
2017-05-08T01:05:56.073Z,992.06
2017-05-08T01:07:06.433Z,992.02
2017-05-08T01:08:16.765Z,992.06
2017-05-08T01:09:26.816Z,992.02
2017-05-08T01:10:36.850Z,992.06
2017-05-08T01:11:47.200Z,992.01
2017-05-08T01:12:57.548Z,992.04
2017-05-08T01:14:07.909Z,992.03
2017-05-08T01:15:17.966Z,991.97
2017-05-08T01:16:27.688Z,991.99
2017-05-08T01:17:37.724Z,992.01
2017-05-08T01:18:48.072Z,991.96
2017-05-08T01:19:58.445Z,991.99
2017-05-08T01:21:08.518Z,991.97
2017-05-08T01:22:18.862Z,991.96
2017-05-08T01:23:29.209Z,991.99
2017-05-08T01:24:39.559Z,991.93
2017-05-08T01:25:49.601Z,991.96
2017-05-08T01:26:59.948Z,991.98
2017-05-08T01:28:10.292Z,991.98
2017-05-08T01:29:20.673Z,991.98
2017-05-08T01:30:31.043Z,991.98
2017-05-08T01:31:41.397Z,991.92
2017-05-08T01:32:51.732Z,991.96
2017-05-08T01:34:01.806Z,991.89
2017-05-08T01:35:12.161Z,991.92
2017-05-08T01:36:22.503Z,991.88
2017-05-08T01:37:32.546Z,991.88
2017-05-08T01:38:42.624Z,991.91
2017-05-08T01:39:52.984Z,991.91
2017-05-08T01:41:03.326Z,991.88
2017-05-08T01:42:13.686Z,991.9
2017-05-08T01:43:23.721Z,991.88
2017-05-08T01:44:34.076Z,991.91
2017-05-08T01:45:44.412Z,991.91
2017-05-08T01:46:54.770Z,991.85
2017-05-08T01:48:05.119Z,991.89
2017-05-08T01:49:15.545Z,991.9
2017-05-08T01:50:25.923Z,991.89
2017-05-08T01:51:36.291Z,991.85
2017-05-08T01:52:46.006Z,991.83
2017-05-08T01:53:56.362Z,991.83
2017-05-08T01:55:06.720Z,991.79
2017-05-08T01:56:17.088Z,991.81
2017-05-08T01:57:27.438Z,991.79
2017-05-08T01:58:37.804Z,991.77
2017-05-08T01:59:48.179Z,991.79
2017-05-08T02:00:58.230Z,991.81
2017-05-08T02:02:08.265Z,991.79
2017-05-08T02:03:18.306Z,991.82
2017-05-08T02:04:28.341Z,991.81
2017-05-08T02:05:38.676Z,991.86
2017-05-08T02:06:48.402Z,991.79
2017-05-08T02:07:58.751Z,991.77
2017-05-08T02:09:09.111Z,991.77
2017-05-08T02:10:19.462Z,991.74
2017-05-08T02:11:29.190Z,991.75
2017-05-08T02:12:39.547Z,991.78
2017-05-08T02:13:49.897Z,991.8
2017-05-08T02:14:59.931Z,991.78
2017-05-08T02:16:10.286Z,991.76
2017-05-08T02:17:20.687Z,991.77
2017-05-08T02:18:30.731Z,991.69
2017-05-08T02:19:41.074Z,991.69
2017-05-08T02:20:51.428Z,991.73
2017-05-08T02:22:01.805Z,991.71
2017-05-08T02:23:11.826Z,991.7
2017-05-08T02:24:22.174Z,991.66
2017-05-08T02:25:32.546Z,991.7
2017-05-08T02:26:42.885Z,991.71
2017-05-08T02:27:53.223Z,991.67
2017-05-08T02:29:03.587Z,991.68
2017-05-08T02:30:13.929Z,991.67
2017-05-08T02:31:24.282Z,991.7
2017-05-08T02:32:34.310Z,991.64
2017-05-08T02:33:44.667Z,991.66
2017-05-08T02:34:55.008Z,991.63
2017-05-08T02:36:05.401Z,991.65
2017-05-08T02:37:15.446Z,991.62
2017-05-08T02:38:25.773Z,991.65
2017-05-08T02:39:36.122Z,991.6
2017-05-08T02:40:46.163Z,991.6
2017-05-08T02:41:55.580Z,991.62
2017-05-08T02:43:05.944Z,991.58
2017-05-08T02:44:15.661Z,991.59
2017-05-08T02:45:25.999Z,991.55
2017-05-08T02:46:36.331Z,991.55
2017-05-08T02:47:46.677Z,991.51
2017-05-08T02:48:57.020Z,991.54
2017-05-08T02:50:07.384Z,991.49
2017-05-08T02:51:17.406Z,991.5
2017-05-08T02:52:27.749Z,991.49
2017-05-08T02:53:38.091Z,991.48
2017-05-08T02:54:48.451Z,991.47
2017-05-08T02:55:58.497Z,991.47
2017-05-08T02:57:08.847Z,991.48
2017-05-08T02:58:19.196Z,991.44
2017-05-08T02:59:29.544Z,991.5
2017-05-08T03:00:39.906Z,991.47
2017-05-08T03:01:50.254Z,991.49
2017-05-08T03:33:06.008Z,991.47
2017-05-08T03:34:16.026Z,991.46
2017-05-08T03:35:26.367Z,991.43
2017-05-08T03:36:36.730Z,991.47
2017-05-08T03:37:47.087Z,991.48
2017-05-08T03:38:57.428Z,991.45
2017-05-08T03:40:07.499Z,991.45
2017-05-08T03:41:17.860Z,991.47
2017-05-08T03:42:27.903Z,991.48
2017-05-08T03:43:37.627Z,991.48
2017-05-08T03:44:47.962Z,991.5
2017-05-08T03:45:58.305Z,991.5
2017-05-08T03:47:08.660Z,991.54
2017-05-08T03:48:18.693Z,991.45
2017-05-08T03:49:29.053Z,991.53
2017-05-08T03:50:39.151Z,991.51
2017-05-08T03:51:49.197Z,991.51
2017-05-08T03:52:58.928Z,991.54
2017-05-08T03:54:09.271Z,991.57
2017-05-08T03:55:19.629Z,991.54
2017-05-08T03:56:29.977Z,991.58
2017-05-08T03:57:40.321Z,991.61
2017-05-08T03:58:50.351Z,991.63
2017-05-08T04:00:00.399Z,991.63
2017-05-08T04:01:10.444Z,991.64
2017-05-08T04:02:20.843Z,991.65
2017-05-08T04:03:31.199Z,991.68
2017-05-08T04:04:41.545Z,991.69
2017-05-08T04:05:51.578Z,991.69
2017-05-08T04:07:01.621Z,991.75
2017-05-08T04:08:11.985Z,991.78
2017-05-08T04:09:22.326Z,991.81
2017-05-08T04:10:32.674Z,991.81
2017-05-08T04:11:43.050Z,991.78
2017-05-08T04:12:53.423Z,991.82
2017-05-08T04:14:03.831Z,991.84
2017-05-08T04:15:13.877Z,991.81
2017-05-08T04:16:23.600Z,991.87
2017-05-08T04:17:33.964Z,991.85
2017-05-08T04:18:44.010Z,991.87
2017-05-08T04:19:54.364Z,991.84
2017-05-08T04:21:04.420Z,991.9
2017-05-08T04:22:14.773Z,991.91
2017-05-08T04:23:25.113Z,991.95
2017-05-08T04:24:35.469Z,991.96
2017-05-08T04:25:45.597Z,991.96
2017-05-08T04:26:55.938Z,991.89
2017-05-08T04:28:06.291Z,991.88
2017-05-08T04:29:16.343Z,991.88
2017-05-08T04:30:26.398Z,991.97
2017-05-08T04:31:36.736Z,991.92
2017-05-08T04:32:47.095Z,991.92
2017-05-08T04:33:57.453Z,991.91
2017-05-08T04:35:07.842Z,991.92
2017-05-08T04:36:18.189Z,991.93
2017-05-08T04:37:28.538Z,991.95
2017-05-08T04:38:38.899Z,991.97
2017-05-08T04:39:49.241Z,991.95
2017-05-08T04:40:59.596Z,991.96
2017-05-08T04:42:09.960Z,992.01
2017-05-08T04:43:20.003Z,992.04
2017-05-08T04:44:30.361Z,992.02
2017-05-08T04:45:40.417Z,992.19
2017-05-08T04:46:50.775Z,992.23
2017-05-08T04:48:00.850Z,992.13
2017-05-08T04:49:10.890Z,992.04
2017-05-08T04:50:21.234Z,992.01
2017-05-08T04:51:31.572Z,992.1
2017-05-08T04:52:41.911Z,992.13
2017-05-08T04:53:52.273Z,992.12
2017-05-08T04:55:02.319Z,992.11
2017-05-08T04:56:12.675Z,992.13
2017-05-08T04:57:23.023Z,992.12
2017-05-08T04:58:33.379Z,992.13
2017-05-08T04:59:43.732Z,992.11
2017-05-08T05:00:54.099Z,992.14
2017-05-08T05:02:04.149Z,992.04
2017-05-08T05:03:14.527Z,992.02
2017-05-08T05:04:24.909Z,992
2017-05-08T05:05:35.256Z,992.02
2017-05-08T05:06:45.838Z,992.04
2017-05-08T05:07:55.884Z,992.06
2017-05-08T05:09:06.241Z,992.05
2017-05-08T05:10:16.596Z,992.01
2017-05-08T05:11:26.946Z,992.06
2017-05-08T05:12:37.317Z,992.04
2017-05-08T05:13:47.382Z,992.05
2017-05-08T05:14:57.726Z,992.06
2017-05-08T05:16:08.071Z,992.04
2017-05-08T05:17:18.128Z,992.11
2017-05-08T05:18:28.184Z,992.03
2017-05-08T05:19:38.536Z,992.08
2017-05-08T05:20:48.603Z,992.11
2017-05-08T05:21:58.673Z,992.12
2017-05-08T05:23:08.716Z,992.09
2017-05-08T05:24:19.088Z,992.1
2017-05-08T05:25:29.110Z,992.12
2017-05-08T05:26:39.192Z,992.06
2017-05-08T05:27:49.234Z,992.07
2017-05-08T05:28:59.580Z,992.06
2017-05-08T05:30:09.606Z,992.07
2017-05-08T05:31:19.327Z,992.07
2017-05-08T05:32:29.683Z,992.04
2017-05-08T05:33:40.028Z,992.05
2017-05-08T05:34:50.622Z,992.02
2017-05-08T05:36:00.664Z,992.04
2017-05-08T05:37:11.024Z,992.13
2017-05-08T05:38:21.381Z,992.1
2017-05-08T05:39:31.416Z,992.06
2017-05-08T05:40:41.766Z,992.12
2017-05-08T05:41:52.118Z,992.15
2017-05-08T05:43:02.492Z,992.13
2017-05-08T05:44:12.837Z,992.17
2017-05-08T05:45:22.901Z,992.14
2017-05-08T05:46:33.279Z,992.13
2017-05-08T05:47:43.684Z,992.14
2017-05-08T05:48:53.759Z,992.1
2017-05-08T05:50:04.117Z,992.11
2017-05-08T05:51:14.511Z,992.11
2017-05-08T05:52:24.554Z,992.12
2017-05-08T05:53:34.913Z,992.25
2017-05-08T05:54:45.290Z,992.42
2017-05-08T05:55:55.667Z,992.45
2017-05-08T05:57:05.720Z,992.26
2017-05-08T05:58:15.767Z,992.23
2017-05-08T05:59:25.833Z,992.19
2017-05-08T06:00:36.202Z,992.2
2017-05-08T06:01:46.253Z,992.21
2017-05-08T06:02:56.609Z,992.21
2017-05-08T06:04:07.116Z,992.25
2017-05-08T06:05:17.643Z,992.2
2017-05-08T06:06:27.693Z,992.22
2017-05-08T06:07:38.084Z,992.25
2017-05-08T06:08:48.444Z,992.2
2017-05-08T06:09:58.805Z,992.25
2017-05-08T06:11:08.856Z,992.27
2017-05-08T06:12:19.214Z,992.23
2017-05-08T06:13:29.572Z,992.2
2017-05-08T06:14:39.952Z,992.2
2017-05-08T06:15:50.339Z,992.19
2017-05-08T06:17:00.080Z,992.16
2017-05-08T06:18:10.438Z,992.21
2017-05-08T06:19:20.784Z,992.17
2017-05-08T06:20:30.525Z,992.22
2017-05-08T06:21:40.887Z,992.25
2017-05-08T06:22:50.623Z,992.28
2017-05-08T06:24:00.974Z,992.25
2017-05-08T06:25:11.344Z,992.21
2017-05-08T06:26:21.375Z,992.29
2017-05-08T06:27:31.725Z,992.14
2017-05-08T06:28:42.192Z,992.19
2017-05-08T06:29:51.943Z,992.22
2017-05-08T06:31:01.983Z,992.24
2017-05-08T06:32:12.367Z,992.26
2017-05-08T06:33:22.778Z,992.31
2017-05-08T06:34:33.160Z,992.28
2017-05-08T06:35:43.528Z,992.24
2017-05-08T06:36:53.898Z,992.27
2017-05-08T06:38:04.260Z,992.34
2017-05-08T06:39:14.538Z,992.28
2017-05-08T06:40:24.898Z,992.28
2017-05-08T06:41:34.950Z,992.27
2017-05-08T06:42:44.986Z,992.34
2017-05-08T06:43:55.031Z,992.35
2017-05-08T06:45:05.072Z,992.27
2017-05-08T06:46:15.129Z,992.22
2017-05-08T06:47:25.180Z,992.37
2017-05-08T06:48:35.588Z,992.27
2017-05-08T06:49:45.946Z,992.24
2017-05-08T06:50:56.002Z,992.28
2017-05-08T06:52:06.337Z,992.34
2017-05-08T06:53:16.392Z,992.24
2017-05-08T06:54:26.767Z,992.37
2017-05-08T06:55:37.124Z,992.23
2017-05-08T06:56:47.503Z,992.29
2017-05-08T06:57:57.870Z,992.33
2017-05-08T06:59:08.228Z,992.24
2017-05-08T07:00:18.606Z,992.34
2017-05-08T07:01:28.970Z,992.28
2017-05-08T07:02:39.012Z,992.28
2017-05-08T07:03:49.358Z,992.31
2017-05-08T07:04:59.397Z,992.26
2017-05-08T07:06:09.752Z,992.22
2017-05-08T07:07:20.151Z,992.2
2017-05-08T07:08:30.497Z,992.27
2017-05-08T07:09:40.854Z,992.26
2017-05-08T07:10:50.895Z,992.44
2017-05-08T07:12:01.260Z,992.25
2017-05-08T07:13:11.615Z,992.24
2017-05-08T07:14:21.970Z,992.28
2017-05-08T07:15:32.075Z,992.3
2017-05-08T07:16:42.429Z,992.32
2017-05-08T07:17:52.785Z,992.32
2017-05-08T07:19:02.838Z,992.31
2017-05-08T07:20:12.581Z,992.26
2017-05-08T07:21:22.920Z,992.26
2017-05-08T07:22:32.981Z,992.32
2017-05-08T07:23:43.369Z,992.22
2017-05-08T07:24:53.754Z,992.28
2017-05-08T07:26:04.100Z,992.26
2017-05-08T07:27:14.450Z,992.3
2017-05-08T07:28:24.543Z,992.28
2017-05-08T07:29:34.889Z,992.33
2017-05-08T07:30:44.939Z,992.3
2017-05-08T07:31:55.302Z,992.32
2017-05-08T07:33:05.717Z,992.36
2017-05-08T07:34:16.072Z,992.36
2017-05-08T07:35:26.117Z,992.34
2017-05-08T07:36:36.177Z,992.32
2017-05-08T07:37:46.203Z,992.28
2017-05-08T07:38:56.550Z,992.31
2017-05-08T07:40:06.888Z,992.31
2017-05-08T07:41:17.261Z,992.32
2017-05-08T07:42:26.986Z,992.24
2017-05-08T07:43:37.058Z,992.29
2017-05-08T07:44:46.780Z,992.35
2017-05-08T07:45:56.837Z,992.29
2017-05-08T07:47:05.944Z,992.29
2017-05-08T07:48:16.291Z,992.26
2017-05-08T07:49:26.651Z,992.31
2017-05-08T07:50:37.015Z,992.35
2017-05-08T07:51:47.350Z,992.35
2017-05-08T07:52:57.711Z,992.35
2017-05-08T07:54:08.055Z,992.34
2017-05-08T07:55:18.416Z,992.33
2017-05-08T07:56:28.507Z,992.31
2017-05-08T07:57:38.540Z,992.37
2017-05-08T07:58:48.591Z,992.35
2017-05-08T07:59:58.982Z,992.34
2017-05-08T08:01:09.028Z,992.29
2017-05-08T08:02:19.375Z,992.31
2017-05-08T08:03:29.422Z,992.31
2017-05-08T08:04:39.764Z,992.36
2017-05-08T08:05:49.806Z,992.31
2017-05-08T08:07:00.162Z,992.34
2017-05-08T08:08:10.205Z,992.34
2017-05-08T08:09:20.591Z,992.32
2017-05-08T08:10:30.967Z,992.27
2017-05-08T08:11:41.334Z,992.27
2017-05-08T08:12:51.721Z,992.31
2017-05-08T08:14:02.081Z,992.26
2017-05-08T08:15:12.443Z,992.25
2017-05-08T08:16:22.483Z,992.29
2017-05-08T08:17:32.855Z,992.24
2017-05-08T08:18:43.224Z,992.28
2017-05-08T08:19:53.579Z,992.25
2017-05-08T08:21:03.964Z,992.35
2017-05-08T08:22:14.346Z,992.27
2017-05-08T08:23:24.707Z,992.28
2017-05-08T08:24:35.080Z,992.21
2017-05-08T08:25:45.129Z,992.2
2017-05-08T08:26:55.493Z,992.25
2017-05-08T08:28:05.863Z,992.31
2017-05-08T08:29:16.206Z,992.25
2017-05-08T08:30:26.294Z,992.25
2017-05-08T08:31:36.652Z,992.33
2017-05-08T08:32:46.696Z,992.31
2017-05-08T08:33:57.096Z,992.27
2017-05-08T08:35:07.165Z,992.28
2017-05-08T08:36:16.941Z,992.25
2017-05-08T08:37:27.290Z,992.26
2017-05-08T08:38:37.646Z,992.25
2017-05-08T08:39:47.997Z,992.24
2017-05-08T08:40:57.410Z,992.25
2017-05-08T08:42:07.806Z,992.27
2017-05-08T08:43:18.191Z,992.11
2017-05-08T08:44:28.558Z,992.22
2017-05-08T08:45:38.919Z,992.21
2017-05-08T08:46:49.290Z,992.19
2017-05-08T08:47:59.317Z,992.23
2017-05-08T08:49:09.665Z,992.24
2017-05-08T08:50:20.021Z,992.26
2017-05-08T08:51:30.391Z,992.27
2017-05-08T08:52:40.754Z,992.27
2017-05-08T08:53:50.803Z,992.26
2017-05-08T08:55:01.170Z,992.2
2017-05-08T08:56:10.585Z,992.22
2017-05-08T08:57:20.937Z,992.21
2017-05-08T08:58:30.979Z,992.18
2017-05-08T08:59:41.327Z,992.21
2017-05-08T09:00:51.737Z,992.17
2017-05-08T09:02:01.773Z,992.21
2017-05-08T09:03:11.836Z,992.17
2017-05-08T09:04:21.874Z,992.21
2017-05-08T09:05:31.597Z,992.17
2017-05-08T09:06:41.641Z,992.13
2017-05-08T09:07:52.025Z,992.14
2017-05-08T09:09:01.440Z,992.15
2017-05-08T09:10:11.816Z,992.12
2017-05-08T09:11:21.849Z,992.12
2017-05-08T09:12:32.293Z,992.12
2017-05-08T09:13:42.665Z,992.18
2017-05-08T09:14:52.406Z,992.14
2017-05-08T09:16:02.766Z,992.18
2017-05-08T09:17:12.802Z,992.13
2017-05-08T09:18:23.177Z,992.1
2017-05-08T09:19:33.216Z,992.07
2017-05-08T09:20:43.558Z,992.19
2017-05-08T09:21:53.910Z,992.06
2017-05-08T09:23:03.939Z,992.14
2017-05-08T09:24:14.005Z,992.13
2017-05-08T09:25:24.359Z,992.12
2017-05-08T09:26:34.722Z,992.1
2017-05-08T09:27:45.093Z,992.09
2017-05-08T09:28:55.145Z,992.06
2017-05-08T09:30:05.550Z,992.18
2017-05-08T09:31:15.907Z,992.06
2017-05-08T09:32:25.957Z,992.1
2017-05-08T09:33:36.317Z,992.09
2017-05-08T09:34:46.359Z,992.08
2017-05-08T09:35:56.716Z,992.08
2017-05-08T09:37:07.075Z,992.08
2017-05-08T09:38:17.455Z,992.06
2017-05-08T09:39:27.499Z,992.03
2017-05-08T09:40:37.863Z,992.04
2017-05-08T09:41:48.217Z,992.09
2017-05-08T09:42:58.275Z,992.11
2017-05-08T09:44:08.631Z,992.07
2017-05-08T09:45:18.689Z,992.05
2017-05-08T09:46:29.074Z,992.07
2017-05-08T09:47:39.420Z,992.06
2017-05-08T09:48:49.773Z,992.1
2017-05-08T09:50:00.121Z,992.09
2017-05-08T09:51:10.168Z,992.04
2017-05-08T09:52:20.506Z,992.09
2017-05-08T09:53:30.540Z,992.09
2017-05-08T09:54:40.907Z,992.05
2017-05-08T09:55:51.277Z,992.07
2017-05-08T09:57:01.609Z,991.99
2017-05-08T09:58:11.699Z,992.06
2017-05-08T09:59:22.044Z,992.02
2017-05-08T10:00:32.404Z,992
2017-05-08T10:01:42.766Z,992.02
2017-05-08T10:02:53.153Z,992.01
2017-05-08T10:04:03.544Z,991.93
2017-05-08T10:05:13.912Z,991.96
2017-05-08T10:06:23.959Z,991.97
2017-05-08T10:07:34.321Z,992.02
2017-05-08T10:08:44.687Z,991.98
2017-05-08T10:09:55.054Z,991.94
2017-05-08T10:11:05.100Z,991.92
2017-05-08T10:12:15.157Z,991.91
2017-05-08T10:13:25.533Z,991.91
2017-05-08T10:14:35.901Z,991.85
2017-05-08T10:15:46.253Z,991.92
2017-05-08T10:16:56.626Z,991.93
2017-05-08T10:18:06.682Z,991.96
2017-05-08T10:19:17.038Z,991.93
2017-05-08T10:20:27.436Z,991.88
2017-05-08T10:21:37.537Z,991.79
2017-05-08T10:22:47.906Z,991.78
2017-05-08T10:23:58.270Z,991.86
2017-05-08T10:25:08.652Z,991.82
2017-05-08T10:26:18.692Z,991.78
2017-05-08T10:27:28.767Z,991.73
2017-05-08T10:28:39.175Z,991.73
2017-05-08T10:29:49.534Z,991.79
2017-05-08T10:30:59.905Z,991.74
2017-05-08T10:32:09.629Z,991.8
2017-05-08T10:33:19.986Z,991.65
2017-05-08T10:34:30.345Z,991.78
2017-05-08T10:35:40.704Z,991.72
2017-05-08T10:36:51.083Z,991.82
2017-05-08T10:38:01.116Z,991.8
2017-05-08T10:39:11.157Z,991.68
2017-05-08T10:40:21.500Z,991.73
2017-05-08T10:41:31.542Z,991.8
2017-05-08T10:42:41.891Z,991.73
2017-05-08T10:43:52.284Z,991.75
2017-05-08T10:45:02.649Z,991.69
2017-05-08T10:46:13.016Z,991.72
2017-05-08T10:47:23.370Z,991.66
2017-05-08T10:48:33.732Z,991.64
2017-05-08T10:49:43.799Z,991.63
2017-05-08T10:50:53.836Z,991.61
2017-05-08T10:52:03.889Z,991.59
2017-05-08T10:53:14.243Z,991.52
2017-05-08T10:54:24.597Z,991.59
2017-05-08T10:55:34.950Z,991.58
2017-05-08T10:56:45.303Z,991.56
2017-05-08T10:57:55.701Z,991.6
2017-05-08T10:59:05.750Z,991.59
2017-05-08T11:00:16.102Z,991.52
2017-05-08T11:01:26.183Z,991.55
2017-05-08T11:02:36.221Z,991.68
2017-05-08T11:03:46.600Z,991.62
2017-05-08T11:04:56.949Z,991.59
2017-05-08T11:06:07.315Z,991.64
2017-05-08T11:07:17.366Z,991.54
2017-05-08T11:08:27.712Z,991.58
2017-05-08T11:09:37.757Z,991.54
2017-05-08T11:10:47.538Z,991.65
2017-05-08T11:11:57.595Z,991.51
2017-05-08T11:13:07.646Z,991.52
2017-05-08T11:14:18.076Z,991.49
2017-05-08T11:15:28.437Z,991.54
2017-05-08T11:16:38.467Z,991.54
2017-05-08T11:17:48.818Z,991.55
2017-05-08T11:18:58.860Z,991.56
2017-05-08T11:20:08.896Z,991.54
2017-05-08T11:21:19.250Z,991.54
2017-05-08T11:22:29.288Z,991.56
2017-05-08T11:23:39.654Z,991.57
2017-05-08T11:24:49.995Z,991.52
2017-05-08T11:26:00.601Z,991.56
2017-05-08T11:27:10.977Z,991.53
2017-05-08T11:28:21.335Z,991.51
2017-05-08T11:29:31.710Z,991.53
2017-05-08T11:30:42.072Z,991.52
2017-05-08T11:31:52.169Z,991.52
2017-05-08T11:33:02.523Z,991.46
2017-05-08T11:34:12.563Z,991.55
2017-05-08T11:35:22.618Z,991.48
2017-05-08T11:36:32.961Z,991.45
2017-05-08T11:37:43.014Z,991.54
2017-05-08T11:38:53.046Z,991.45
2017-05-08T11:40:03.078Z,991.5
2017-05-08T11:41:13.133Z,991.49
2017-05-08T11:42:23.532Z,991.48
2017-05-08T11:43:33.582Z,991.47
2017-05-08T11:44:43.626Z,991.48
2017-05-08T11:45:53.378Z,991.54
2017-05-08T11:47:03.413Z,991.51
2017-05-08T11:48:13.765Z,991.48
2017-05-08T11:49:24.135Z,991.45
2017-05-08T11:50:34.497Z,991.43
2017-05-08T11:51:44.546Z,991.46
2017-05-08T11:52:54.605Z,991.49
2017-05-08T11:54:04.965Z,991.48
2017-05-08T11:55:15.391Z,991.5
2017-05-08T11:56:25.748Z,991.48
2017-05-08T11:57:35.168Z,991.41
2017-05-08T11:58:45.225Z,991.46
2017-05-08T11:59:55.622Z,991.46
2017-05-08T12:01:05.986Z,991.44
2017-05-08T12:02:16.373Z,991.52
2017-05-08T12:03:26.724Z,991.46
2017-05-08T12:04:37.072Z,991.43
2017-05-08T12:05:47.421Z,991.42
2017-05-08T12:06:57.787Z,991.41
2017-05-08T12:08:08.145Z,991.45
2017-05-08T12:09:18.494Z,991.41
2017-05-08T12:10:28.849Z,991.4
2017-05-08T12:11:39.376Z,991.39
2017-05-08T12:12:49.732Z,991.39
2017-05-08T12:14:00.134Z,991.43
2017-05-08T12:15:10.231Z,991.39
2017-05-08T12:16:20.298Z,991.44
2017-05-08T12:17:30.676Z,991.41
2017-05-08T12:18:40.754Z,991.44
2017-05-08T12:19:50.815Z,991.46
2017-05-08T12:21:00.914Z,991.47
2017-05-08T12:22:11.279Z,991.46
2017-05-08T12:23:21.891Z,991.35
2017-05-08T12:24:32.295Z,991.37
2017-05-08T12:25:42.649Z,991.32
2017-05-08T12:26:52.686Z,991.37
2017-05-08T12:28:03.061Z,991.33
2017-05-08T12:29:13.435Z,991.39
2017-05-08T12:30:23.799Z,991.36
2017-05-08T12:31:34.162Z,991.23
2017-05-08T12:32:44.535Z,991.29
2017-05-08T12:33:54.937Z,991.3
2017-05-08T12:35:05.435Z,991.31
2017-05-08T12:36:15.517Z,991.29
2017-05-08T12:37:25.890Z,991.25
2017-05-08T12:38:36.253Z,991.25
2017-05-08T12:39:46.658Z,991.28
2017-05-08T12:40:56.719Z,991.31
2017-05-08T12:42:06.771Z,991.19
2017-05-08T12:43:16.822Z,991.24
2017-05-08T12:44:27.190Z,991.33
2017-05-08T12:45:37.277Z,991.31
2017-05-08T12:46:47.362Z,991.23
2017-05-08T12:47:57.728Z,991.21
2017-05-08T12:49:07.773Z,991.15
2017-05-08T12:50:17.923Z,991.15
2017-05-08T12:51:27.977Z,991.18
2017-05-08T12:52:38.342Z,991.18
2017-05-08T12:53:48.730Z,991.18
2017-05-08T12:54:59.150Z,991.18
2017-05-08T12:56:09.513Z,991.2
2017-05-08T12:57:19.575Z,991.16
2017-05-08T12:58:29.942Z,991.18
2017-05-08T12:59:40.317Z,991.16
2017-05-08T13:00:50.690Z,991.19
2017-05-08T13:02:01.107Z,991.18
2017-05-08T13:03:11.473Z,991.09
2017-05-08T13:04:21.531Z,991.14
2017-05-08T13:05:31.901Z,991.17
2017-05-08T13:06:42.300Z,991.13
2017-05-08T13:07:52.661Z,991.13
2017-05-08T13:09:02.713Z,991.17
2017-05-08T13:10:13.087Z,991.26
2017-05-08T13:11:23.710Z,991.16
2017-05-08T13:12:33.775Z,991.16
2017-05-08T13:13:43.850Z,991.2
2017-05-08T13:14:54.236Z,991.25
2017-05-08T13:16:04.617Z,991.18
2017-05-08T13:17:14.690Z,991.12
2017-05-08T13:18:25.069Z,991.13
2017-05-08T13:19:35.135Z,991.15
2017-05-08T13:20:45.556Z,991.1
2017-05-08T13:21:55.942Z,991.11
2017-05-08T13:23:06.324Z,991.16
2017-05-08T13:24:16.704Z,991.1
2017-05-08T13:25:27.079Z,991.08
2017-05-08T13:26:37.131Z,991.09
2017-05-08T13:27:47.498Z,991.07
2017-05-08T13:28:57.545Z,991.02
2017-05-08T13:30:07.610Z,991.1
2017-05-08T13:31:17.973Z,991.01
2017-05-08T13:32:28.346Z,990.97
2017-05-08T13:33:38.738Z,990.98
2017-05-08T13:34:48.803Z,991.04
2017-05-08T13:35:59.163Z,990.92
2017-05-08T13:37:09.519Z,990.91
2017-05-08T13:38:19.589Z,990.98
2017-05-08T13:39:29.944Z,990.95
2017-05-08T13:40:39.677Z,990.88
2017-05-08T13:41:50.028Z,990.96
2017-05-08T13:43:00.439Z,990.98
2017-05-08T13:44:10.800Z,990.94
2017-05-08T13:45:20.847Z,990.92
2017-05-08T13:46:30.593Z,990.9
2017-05-08T13:47:40.955Z,990.93
2017-05-08T13:48:51.307Z,990.89
2017-05-08T13:50:01.660Z,990.91
2017-05-08T13:51:12.022Z,990.86
2017-05-08T13:52:22.383Z,990.88
2017-05-08T13:53:32.749Z,990.86
2017-05-08T13:54:43.107Z,990.88
2017-05-08T13:55:53.150Z,990.87
2017-05-08T13:57:03.516Z,990.87
2017-05-08T13:58:13.908Z,990.83
2017-05-08T13:59:23.944Z,990.83
2017-05-08T14:00:34.029Z,990.86
2017-05-08T14:01:44.082Z,990.85
2017-05-08T14:02:54.430Z,990.85
2017-05-08T14:04:04.479Z,990.85
2017-05-08T14:05:14.841Z,990.87
2017-05-08T14:06:24.905Z,990.82
2017-05-08T14:07:35.259Z,990.83
2017-05-08T14:08:45.321Z,990.83
2017-05-08T14:09:55.674Z,990.79
2017-05-08T14:11:06.030Z,990.78
2017-05-08T14:12:16.388Z,990.78
2017-05-08T14:13:26.444Z,990.82
2017-05-08T14:14:36.822Z,990.79
2017-05-08T14:15:47.199Z,990.7
2017-05-08T14:16:57.549Z,990.7
2017-05-08T14:18:07.288Z,990.76
2017-05-08T14:19:17.337Z,990.72
2017-05-08T14:20:27.720Z,990.68
2017-05-08T14:21:38.097Z,990.65
2017-05-08T14:22:48.501Z,990.68
2017-05-08T14:23:58.246Z,990.71
2017-05-08T14:25:08.611Z,990.73
2017-05-08T14:26:18.947Z,990.73
2017-05-08T14:27:29.320Z,990.7
2017-05-08T14:28:39.667Z,990.72
2017-05-08T14:29:50.023Z,990.7
2017-05-08T14:31:00.389Z,990.7
2017-05-08T14:32:10.747Z,990.66
2017-05-08T14:33:21.098Z,990.69
2017-05-08T14:34:31.496Z,990.64
2017-05-08T14:35:41.868Z,990.66
2017-05-08T14:36:52.243Z,990.64
2017-05-08T14:38:02.284Z,990.59
2017-05-08T14:39:12.333Z,990.55
2017-05-08T14:40:22.384Z,990.57
2017-05-08T14:41:32.751Z,990.67
2017-05-08T14:42:43.111Z,990.6
2017-05-08T14:43:53.473Z,990.64
2017-05-08T14:45:03.551Z,990.62
2017-05-08T14:46:13.921Z,990.62
2017-05-08T14:47:24.279Z,990.63
2017-05-08T14:48:34.317Z,990.59
2017-05-08T14:49:44.681Z,990.65
2017-05-08T14:50:55.065Z,990.65
2017-05-08T14:52:05.094Z,990.62
2017-05-08T14:53:15.456Z,990.65
2017-05-08T14:54:25.189Z,990.62
2017-05-08T14:55:35.554Z,990.57
2017-05-08T14:56:45.909Z,990.54
2017-05-08T14:57:55.339Z,990.51
2017-05-08T14:59:05.693Z,990.53
2017-05-08T15:00:16.048Z,990.53
2017-05-08T15:01:26.090Z,990.51
2017-05-08T15:02:36.455Z,990.56
2017-05-08T15:03:46.824Z,990.59
2017-05-08T15:04:57.176Z,990.56
2017-05-08T15:06:07.527Z,990.58
2017-05-08T15:07:17.559Z,990.6
2017-05-08T15:08:27.597Z,990.62